Time;durP1;ratioP1;P1;durP2;ratioP2;P2;SDS_P1;SDS_P2;PMS_P1;PMS_P2;Temp;Humidity;BMP_temperature;BMP_pressure;BME280_temperature;BME280_humidity;BME280_pressure;Samples;Min_cycle;Max_cycle;Signal;HPM_P1;HPM_P2
2021/12/11 00:01:37;;;;;;;23.80;11.25;;;;;;;3.14;70.98;101727.47;1788608;78;21528;-61
2021/12/11 00:04:03;;;;;;;27.07;11.00;;;;;;;3.14;71.00;101724.00;1781177;78;21246;-61
2021/12/11 00:06:35;;;;;;;21.62;10.75;;;;;;;3.08;71.11;101720.89;1788364;80;21058;-61
2021/12/11 00:09:24;;;;;;;29.72;11.65;;;;;;;3.05;71.19;101720.45;1788517;80;21128;-62
2021/12/11 00:11:55;;;;;;;20.65;9.58;;;;;;;3.02;71.36;101716.52;1788420;80;21101;-62
2021/12/11 00:14:26;;;;;;;19.60;10.10;;;;;;;2.99;71.53;101720.41;1788285;80;21127;-62
2021/12/11 00:16:56;;;;;;;21.27;10.03;;;;;;;2.96;71.59;101716.47;1788385;80;21574;-62
2021/12/11 00:19:27;;;;;;;23.70;9.45;;;;;;;2.91;71.67;101718.16;1788394;80;21564;-62
2021/12/11 00:22:05;;;;;;;24.00;8.85;;;;;;;2.89;71.65;101722.48;1788332;80;21073;-60
2021/12/11 00:24:35;;;;;;;23.95;9.00;;;;;;;2.89;71.72;101722.48;1788863;78;21496;-61
2021/12/11 00:27:09;;;;;;;27.62;9.20;;;;;;;2.87;71.69;101721.60;1788408;80;21163;-60
2021/12/11 00:29:39;;;;;;;22.58;8.70;;;;;;;2.82;71.82;101724.18;1788401;80;21022;-60
2021/12/11 00:32:25;;;;;;;28.95;10.43;;;;;;;2.76;71.87;101719.34;1788503;80;21038;-60
2021/12/11 00:34:57;;;;;;;16.60;8.40;;;;;;;2.72;71.89;101718.88;1788388;80;21626;-60
2021/12/11 00:37:27;;;;;;;26.17;9.63;;;;;;;2.68;72.12;101708.44;1788535;80;21654;-60
2021/12/11 00:39:59;;;;;;;22.87;9.85;;;;;;;2.66;72.11;101714.05;1788422;80;21060;-59
2021/12/11 00:42:34;;;;;;;20.15;9.68;;;;;;;2.64;72.13;101709.27;1788443;80;21505;-59
2021/12/11 00:45:19;;;;;;;20.97;8.98;;;;;;;2.65;72.04;101723.14;1788373;80;21073;-59
2021/12/11 00:47:53;;;;;;;30.55;10.35;;;;;;;2.64;71.85;101723.58;1788296;78;21160;-60
2021/12/11 00:50:25;;;;;;;23.65;11.80;;;;;;;2.62;71.74;101717.49;1788443;80;21493;-60
2021/12/11 00:52:56;;;;;;;40.95;19.60;;;;;;;2.61;71.73;101713.13;1788340;80;21034;-60
2021/12/11 00:55:31;;;;;;;27.50;14.13;;;;;;;2.59;71.73;101703.15;1788389;80;21057;-59
2021/12/11 00:58:14;;;;;;;33.02;13.28;;;;;;;2.58;71.81;101714.39;1788294;80;21143;-61
2021/12/11 01:00:52;;;;;;;29.10;14.43;;;;;;;2.57;71.76;101717.87;1788531;80;21118;-60
2021/12/11 01:03:23;;;;;;;23.47;10.20;;;;;;;2.55;71.70;101719.59;1788518;80;21029;-60
2021/12/11 01:05:55;;;;;;;24.30;12.20;;;;;;;2.53;71.71;101716.10;1788376;80;21109;-59
2021/12/11 01:08:33;;;;;;;25.80;10.15;;;;;;;2.50;71.69;101714.33;1788274;80;21069;-59
2021/12/11 01:11:07;;;;;;;23.05;7.58;;;;;;;2.50;71.74;101714.77;1788472;80;21050;-59
2021/12/11 01:13:39;;;;;;;24.27;8.38;;;;;;;2.49;71.73;101720.80;1788376;80;21205;-59
2021/12/11 01:16:13;;;;;;;18.23;8.13;;;;;;;2.45;71.77;101726.43;1788277;80;21065;-59
2021/12/11 01:18:42;;;;;;;21.30;8.40;;;;;;;2.44;71.80;101725.11;1788234;80;21515;-60
2021/12/11 01:22:09;;;;;;;19.62;7.67;;;;;;;2.45;71.81;101716.44;1788406;80;21524;-59
2021/12/11 01:26:48;;;;;;;16.87;8.15;;;;;;;2.46;71.89;101701.30;1788482;80;21073;-59
2021/12/11 01:29:19;;;;;;;16.62;7.15;;;;;;;2.41;71.94;101693.88;1788185;78;21164;-61
2021/12/11 01:31:49;;;;;;;19.05;8.55;;;;;;;2.40;72.00;101686.92;1793944;80;21057;-60
2021/12/11 01:34:18;;;;;;;24.20;9.35;;;;;;;2.40;71.95;101692.12;1827793;78;21108;-60
2021/12/11 01:36:48;;;;;;;24.52;8.85;;;;;;;2.39;71.97;101688.66;1827719;78;21074;-60
2021/12/11 01:39:20;;;;;;;20.95;7.87;;;;;;;2.38;71.95;101693.43;1827718;78;21057;-59
2021/12/11 01:41:50;;;;;;;26.68;7.75;;;;;;;2.38;71.94;101702.53;1827619;78;21029;-60
2021/12/11 01:44:21;;;;;;;18.75;7.47;;;;;;;2.38;71.86;101705.13;1827719;78;21128;-59
2021/12/11 01:46:50;;;;;;;19.80;6.90;;;;;;;2.38;71.83;101700.33;1827783;78;21613;-61
2021/12/11 01:49:21;;;;;;;18.07;7.22;;;;;;;2.38;71.74;101693.83;1827675;77;21541;-61
2021/12/11 01:51:56;;;;;;;25.82;7.83;;;;;;;2.37;71.87;101693.41;1827670;78;21056;-61
2021/12/11 01:54:30;;;;;;;15.30;6.08;;;;;;;2.36;72.06;101698.15;1827706;78;21061;-62
2021/12/11 01:57:02;;;;;;;16.42;6.78;;;;;;;2.36;72.05;101700.75;1828002;78;21152;-61
2021/12/11 01:59:33;;;;;;;11.63;6.30;;;;;;;2.38;71.95;101706.42;1827807;78;21476;-61
2021/12/11 02:02:08;;;;;;;23.12;7.17;;;;;;;2.41;71.83;101701.67;1827384;78;21078;-61
2021/12/11 02:04:39;;;;;;;20.12;7.17;;;;;;;2.41;71.84;101695.17;1827414;78;21062;-61
2021/12/11 02:07:14;;;;;;;23.15;6.97;;;;;;;2.43;71.92;101715.11;1848795;77;21103;-62
2021/12/11 02:09:50;;;;;;;17.48;6.22;;;;;;;2.43;72.10;101710.36;1871359;77;21067;-61
2021/12/11 02:12:17;;;;;;;18.02;5.97;;;;;;;2.42;72.18;101710.80;1858811;77;21193;-61
2021/12/11 02:14:50;;;;;;;18.45;6.40;;;;;;;2.43;72.13;101715.11;1859613;77;21091;-61
2021/12/11 02:17:24;;;;;;;16.87;6.33;;;;;;;2.43;72.04;101715.55;1859636;77;21567;-62
2021/12/11 02:19:54;;;;;;;14.15;6.30;;;;;;;2.40;72.08;101711.61;1859561;76;21486;-62
2021/12/11 02:22:32;;;;;;;14.83;6.30;;;;;;;2.40;72.12;101715.52;1859650;77;21044;-61
2021/12/11 02:25:04;;;;;;;22.13;6.83;;;;;;;2.42;72.09;101715.13;1848908;77;21034;-62
2021/12/11 02:27:36;;;;;;;14.55;7.05;;;;;;;2.45;72.16;101717.73;1834041;77;21051;-61
2021/12/11 02:30:29;;;;;;;14.68;5.83;;;;;;;2.37;72.33;101707.27;1843246;77;21149;-60
2021/12/11 02:33:06;;;;;;;14.53;7.13;;;;;;;2.38;72.24;101710.73;1856346;77;21141;-61
2021/12/11 02:35:46;;;;;;;17.02;7.87;;;;;;;2.38;72.25;101712.03;1828846;78;21103;-60
2021/12/11 02:38:29;;;;;;;22.05;8.33;;;;;;;2.36;72.33;101704.64;1828756;78;21120;-60
2021/12/11 02:41:01;;;;;;;19.50;6.95;;;;;;;2.29;72.57;101696.80;1828986;78;21113;-60
2021/12/11 02:43:32;;;;;;;18.57;7.72;;;;;;;2.33;72.65;101711.14;1828865;78;21496;-61
2021/12/11 02:46:04;;;;;;;20.85;7.28;;;;;;;2.34;72.59;101713.72;1843177;77;21518;-59
2021/12/11 02:48:38;;;;;;;21.40;7.08;;;;;;;2.39;72.55;101718.98;1861002;76;21137;-60
2021/12/11 02:51:19;;;;;;;17.67;7.75;;;;;;;2.38;72.60;101718.53;1860356;76;21598;-58
2021/12/11 02:53:50;;;;;;;16.62;6.53;;;;;;;2.39;72.58;101713.78;1840871;77;21141;-59
2021/12/11 02:56:28;;;;;;;19.32;7.22;;;;;;;2.38;72.77;101715.92;1864900;77;21593;-58
2021/12/11 02:59:00;;;;;;;16.35;7.28;;;;;;;2.41;72.68;101710.77;1865719;77;21055;-60
2021/12/11 03:01:32;;;;;;;20.97;7.95;;;;;;;2.44;72.71;101701.72;1838685;77;21063;-59
2021/12/11 03:04:25;;;;;;;22.13;8.00;;;;;;;2.45;72.58;101717.33;1845689;77;21144;-59
2021/12/11 03:06:49;;;;;;;20.25;8.53;;;;;;;2.47;72.56;101729.02;1856555;77;21124;-58
2021/12/11 03:09:20;;;;;;;18.90;9.10;;;;;;;2.50;72.50;101731.66;1869199;75;21065;-58
2021/12/11 03:11:51;;;;;;;23.42;10.35;;;;;;;2.50;72.63;101729.06;1869258;75;21069;-58
2021/12/11 03:14:20;;;;;;;15.60;8.78;;;;;;;2.52;72.58;101735.14;1869277;77;21046;-58
2021/12/11 03:16:50;;;;;;;22.27;9.70;;;;;;;2.51;72.61;101745.12;1869237;77;21581;-59
2021/12/11 03:19:21;;;;;;;25.90;9.93;;;;;;;2.51;72.48;101746.42;1869363;77;21045;-59
2021/12/11 03:21:52;;;;;;;31.17;14.60;;;;;;;2.53;72.47;101743.81;1869111;77;21061;-58
2021/12/11 03:24:21;;;;;;;36.23;20.43;;;;;;;2.55;72.43;101743.42;1869191;77;21041;-58
2021/12/11 03:26:52;;;;;;;35.55;18.55;;;;;;;2.56;72.47;101735.61;1868172;77;21487;-58
2021/12/11 03:29:22;;;;;;;44.38;19.02;;;;;;;2.58;72.42;101737.80;1865593;77;21564;-58
2021/12/11 03:31:51;;;;;;;37.15;16.15;;;;;;;2.58;72.55;101735.20;1865294;77;21113;-58
2021/12/11 03:34:22;;;;;;;39.85;18.90;;;;;;;2.56;72.79;101734.31;1865877;77;21117;-59
2021/12/11 03:36:52;;;;;;;32.13;17.17;;;;;;;2.56;72.70;101743.84;1866078;77;21498;-59
2021/12/11 03:39:24;;;;;;;28.05;14.35;;;;;;;2.56;72.69;101755.11;1863381;76;21019;-59
2021/12/11 03:41:55;;;;;;;26.60;12.70;;;;;;;2.57;72.65;101756.88;1865403;77;21076;-59
2021/12/11 03:44:31;;;;;;;26.73;13.32;;;;;;;2.58;72.60;101759.90;1865470;77;21153;-58
2021/12/11 03:46:55;;;;;;;33.63;13.60;;;;;;;2.57;72.60;101752.97;1864469;77;21091;-58
2021/12/11 03:49:25;;;;;;;25.55;11.78;;;;;;;2.55;72.66;101753.83;1859748;76;21561;-58
2021/12/11 03:51:55;;;;;;;27.70;12.47;;;;;;;2.49;72.85;101758.50;1852274;77;21064;-59
2021/12/11 03:54:26;;;;;;;28.15;10.90;;;;;;;2.48;72.93;101758.08;1853332;76;21502;-59
2021/12/11 03:56:56;;;;;;;31.97;11.25;;;;;;;2.46;73.02;101774.09;1853315;77;21631;-59
2021/12/11 03:59:26;;;;;;;29.65;11.57;;;;;;;2.48;73.02;101777.58;1853251;77;21530;-59
2021/12/11 04:01:58;;;;;;;29.90;12.10;;;;;;;2.48;73.01;101775.84;1852329;76;21493;-58
2021/12/11 04:04:30;;;;;;;33.00;12.58;;;;;;;2.47;73.10;101777.11;1846219;77;21166;-58
2021/12/11 04:07:01;;;;;;;25.68;11.18;;;;;;;2.47;73.20;101770.61;1810335;79;21048;-60
2021/12/11 04:09:31;;;;;;;26.05;10.95;;;;;;;2.46;73.33;101771.48;1811110;79;21036;-59
2021/12/11 04:12:01;;;;;;;26.65;10.48;;;;;;;2.46;73.39;101771.48;1813892;77;21020;-60
2021/12/11 04:14:33;;;;;;;19.92;9.90;;;;;;;2.45;73.46;101772.33;1811126;79;21035;-59
2021/12/11 04:17:04;;;;;;;22.52;10.55;;;;;;;2.47;73.42;101772.81;1811145;79;21119;-60
2021/12/11 04:19:34;;;;;;;26.40;11.33;;;;;;;2.49;73.43;101779.30;1839229;76;21051;-59
2021/12/11 04:22:05;;;;;;;23.25;10.28;;;;;;;2.50;73.46;101775.42;1853417;77;21047;-59
2021/12/11 04:24:36;;;;;;;29.00;12.93;;;;;;;2.53;73.47;101773.30;1852991;77;21098;-60
2021/12/11 04:27:07;;;;;;;32.03;10.78;;;;;;;2.55;73.47;101765.52;1850078;77;21134;-58
2021/12/11 04:29:36;;;;;;;29.42;11.63;;;;;;;2.54;73.58;101761.17;1852566;76;21130;-58
2021/12/11 04:32:07;;;;;;;24.70;10.70;;;;;;;2.53;73.63;101766.80;1847017;77;21142;-58
2021/12/11 04:34:37;;;;;;;40.75;12.65;;;;;;;2.56;73.59;101758.16;1811197;79;21066;-58
2021/12/11 04:37:13;;;;;;;33.67;11.80;;;;;;;2.60;73.37;101763.82;1811111;79;21644;-57
2021/12/11 04:39:44;;;;;;;24.43;11.43;;;;;;;2.56;73.44;101773.31;1811270;79;21099;-57
2021/12/11 04:42:25;;;;;;;23.45;10.93;;;;;;;2.59;73.53;101778.55;1811175;79;21098;-58
2021/12/11 04:44:47;;;;;;;24.77;9.95;;;;;;;2.63;73.68;101777.72;1822977;78;21136;-57
2021/12/11 04:47:41;;;;;;;32.63;10.43;;;;;;;2.67;73.70;101779.53;1822845;77;21132;-62
2021/12/11 04:50:11;;;;;;;24.98;10.48;;;;;;;2.73;73.75;101780.42;1855180;76;21423;-60
2021/12/11 04:52:52;;;;;;;26.52;10.82;;;;;;;2.81;73.80;101777.48;1859599;77;21059;-59
2021/12/11 05:06:25;;;;;;;37.53;11.90;;;;;;;3.12;73.52;101792.95;1829354;78;21093;-59
2021/12/11 05:09:27;;;;;;;41.20;11.83;;;;;;;3.15;73.50;101799.89;1864354;75;21045;-57
2021/12/11 05:11:22;;;;;;;29.82;11.00;;;;;;;3.14;73.55;101792.52;1843343;77;21065;-57
2021/12/11 05:13:47;;;;;;;35.73;11.70;;;;;;;3.14;73.50;101802.94;1868821;77;21131;-57
2021/12/11 05:16:17;;;;;;;25.08;8.88;;;;;;;3.14;73.51;101809.87;1869522;77;21126;-58
2021/12/11 05:18:47;;;;;;;27.95;9.40;;;;;;;3.19;73.37;101812.07;1866582;77;21029;-59
2021/12/11 05:21:19;;;;;;;24.90;8.70;;;;;;;3.28;73.20;101819.95;1869499;77;21045;-58
2021/12/11 05:23:51;;;;;;;22.35;9.65;;;;;;;3.37;73.01;101822.63;1869508;77;21546;-58
2021/12/11 05:26:21;;;;;;;20.35;8.70;;;;;;;3.42;72.82;101819.64;1846371;77;21119;-59
2021/12/11 05:28:51;;;;;;;24.57;10.05;;;;;;;3.44;72.73;101815.31;1826800;78;21554;-59
2021/12/11 05:31:20;;;;;;;26.95;9.03;;;;;;;3.42;72.71;101805.33;1826877;78;21508;-59
2021/12/11 05:33:49;;;;;;;23.33;8.97;;;;;;;3.40;72.76;101799.23;1829599;77;21124;-58
2021/12/11 05:36:20;;;;;;;26.57;9.58;;;;;;;3.38;72.69;101795.75;1826855;78;21049;-57
2021/12/11 05:38:49;;;;;;;24.05;10.10;;;;;;;3.39;72.65;101796.17;1826822;78;21034;-57
2021/12/11 05:41:21;;;;;;;30.15;10.40;;;;;;;3.40;72.68;101802.28;1826858;78;21543;-58
2021/12/11 05:43:51;;;;;;;27.27;10.80;;;;;;;3.41;72.80;101814.02;1826822;78;21081;-57
2021/12/11 05:49:10;;;;;;;23.67;10.40;;;;;;;3.52;72.97;101831.44;1811727;79;21438;-57
2021/12/11 05:51:41;;;;;;;25.97;12.03;;;;;;;3.57;73.04;101841.02;1777267;81;21166;-58
2021/12/11 05:54:14;;;;;;;28.62;11.83;;;;;;;3.63;73.12;101834.98;1812530;79;21126;-58
2021/12/11 05:56:44;;;;;;;32.23;12.13;;;;;;;3.70;73.12;101831.56;1812782;78;21204;-59
2021/12/11 05:59:16;;;;;;;30.55;10.80;;;;;;;3.80;73.00;101826.87;1810354;78;21515;-58
2021/12/11 06:02:02;;;;;;;27.32;11.95;;;;;;;3.87;73.01;101829.06;1812521;79;21544;-58
2021/12/11 06:04:34;;;;;;;37.13;13.30;;;;;;;3.89;73.07;101839.50;1804768;78;21054;-59
2021/12/11 06:07:05;;;;;;;48.60;13.45;;;;;;;3.91;73.13;101843.87;1812562;79;21094;-59
2021/12/11 06:09:36;;;;;;;37.88;14.60;;;;;;;3.94;73.15;101836.50;1812639;79;21133;-58
2021/12/11 06:12:07;;;;;;;34.80;14.10;;;;;;;3.98;73.00;101834.34;1811229;79;21043;-59
2021/12/11 06:14:37;;;;;;;24.67;11.35;;;;;;;4.00;72.93;101846.95;1763822;81;21071;-59
2021/12/11 06:17:09;;;;;;;26.77;12.07;;;;;;;4.05;72.85;101851.77;1816062;79;21438;-59
2021/12/11 06:19:41;;;;;;;25.68;10.80;;;;;;;4.12;72.73;101844.42;1827252;78;21057;-58
2021/12/11 06:22:09;;;;;;;33.63;11.00;;;;;;;4.23;72.58;101845.34;1827189;78;21050;-59
2021/12/11 06:24:38;;;;;;;26.87;10.15;;;;;;;4.36;72.43;101863.66;1877425;76;21521;-58
2021/12/11 06:27:07;;;;;;;29.37;10.85;;;;;;;4.49;72.25;101869.36;1812563;79;21087;-57
2021/12/11 06:29:36;;;;;;;24.45;10.03;;;;;;;4.64;72.15;101852.45;1812554;79;21125;-59
2021/12/11 06:32:07;;;;;;;26.45;10.58;;;;;;;4.80;72.03;101853.83;1812624;78;21053;-58
2021/12/11 06:34:36;;;;;;;23.40;10.48;;;;;;;4.97;71.91;101856.03;1812601;79;21154;-58
2021/12/11 06:37:08;;;;;;;27.02;10.63;;;;;;;5.25;71.71;101851.29;1812612;79;21038;-59
2021/12/11 06:39:38;;;;;;;31.37;11.15;;;;;;;5.48;71.38;101855.20;1812657;79;21105;-58
2021/12/11 06:42:09;;;;;;;26.93;9.60;;;;;;;5.70;71.04;101856.95;1812532;79;21599;-59
2021/12/11 06:44:39;;;;;;;24.07;8.88;;;;;;;6.00;70.60;101872.19;1781826;80;21092;-59
2021/12/11 06:47:10;;;;;;;20.70;8.73;;;;;;;6.19;70.14;101874.31;1812671;79;21027;-59
2021/12/11 06:49:40;;;;;;;21.27;8.23;;;;;;;6.25;69.97;101875.59;1792872;79;21083;-59
2021/12/11 06:52:12;;;;;;;20.55;8.40;;;;;;;6.45;69.69;101878.59;1824066;79;21485;-58
2021/12/11 06:54:41;;;;;;;26.02;9.35;;;;;;;6.96;68.82;101867.00;1792996;79;21500;-58
2021/12/11 06:57:11;;;;;;;23.10;8.75;;;;;;;7.60;68.11;101869.16;1824036;79;21078;-58
2021/12/11 06:59:40;;;;;;;27.90;9.48;;;;;;;8.06;67.36;101869.61;1792880;80;21458;-57
2021/12/11 07:02:09;;;;;;;23.50;8.65;;;;;;;8.52;66.64;101866.94;1824050;79;21485;-58
2021/12/11 07:04:38;;;;;;;18.80;7.12;;;;;;;9.00;65.73;101869.79;1792968;80;21492;-58
2021/12/11 07:07:08;;;;;;;17.95;7.70;;;;;;;9.35;64.97;101878.02;1824111;79;21547;-57
2021/12/11 07:09:37;;;;;;;20.20;9.58;;;;;;;9.54;64.52;101878.61;1792823;80;21473;-57
2021/12/11 07:12:08;;;;;;;22.58;9.05;;;;;;;9.76;64.09;101879.97;1824025;79;21489;-58
2021/12/11 07:14:36;;;;;;;21.68;8.65;;;;;;;10.11;63.39;101880.23;1792901;80;21062;-57
2021/12/11 07:17:06;;;;;;;24.45;9.65;;;;;;;10.54;62.54;101879.41;1824036;79;21074;-57
2021/12/11 07:19:35;;;;;;;19.95;8.78;;;;;;;10.91;61.72;101889.16;1792760;80;21599;-58
2021/12/11 07:22:04;;;;;;;21.02;8.08;;;;;;;11.32;61.14;101886.02;1824049;79;21074;-58
2021/12/11 07:24:36;;;;;;;20.10;8.80;;;;;;;11.66;60.40;101878.16;1792818;80;21085;-58
2021/12/11 07:27:08;;;;;;;21.40;8.78;;;;;;;11.92;59.82;101876.19;1824028;79;21070;-57
2021/12/11 07:29:38;;;;;;;18.67;8.53;;;;;;;11.95;59.17;101872.16;1792846;79;21078;-58
2021/12/11 07:32:08;;;;;;;22.07;9.95;;;;;;;11.96;58.37;101873.02;1824007;79;21105;-59
2021/12/11 07:34:37;;;;;;;21.20;8.00;;;;;;;12.07;57.97;101869.62;1792939;80;21128;-59
2021/12/11 07:37:06;;;;;;;16.95;7.25;;;;;;;12.25;56.90;101866.94;1824049;78;21051;-58
2021/12/11 07:39:35;;;;;;;14.70;6.70;;;;;;;12.42;56.27;101871.73;1792864;80;21082;-59
2021/12/11 07:42:04;;;;;;;18.27;8.63;;;;;;;12.31;55.44;101865.44;1824039;79;21569;-59
2021/12/11 07:44:35;;;;;;;21.52;8.73;;;;;;;12.11;55.51;101855.89;1792560;79;21145;-59
2021/12/11 07:47:05;;;;;;;16.12;8.38;;;;;;;12.02;54.70;101848.22;1824010;79;21478;-57
2021/12/11 07:49:34;;;;;;;18.05;6.62;;;;;;;12.00;54.79;101864.56;1797003;80;21176;-57
2021/12/11 07:52:04;;;;;;;24.43;10.25;;;;;;;11.85;54.72;101855.25;1830526;78;21164;-58
2021/12/11 07:54:33;;;;;;;26.95;9.60;;;;;;;11.70;54.87;101857.84;1830544;78;21065;-59
2021/12/11 07:57:02;;;;;;;20.48;7.90;;;;;;;11.66;54.55;101850.91;1830404;78;21026;-59
2021/12/11 07:59:31;;;;;;;15.45;5.80;;;;;;;11.64;54.82;101861.94;1799181;80;21165;-59
2021/12/11 08:02:00;;;;;;;13.28;5.35;;;;;;;11.74;54.88;101870.04;1830489;78;21533;-59
2021/12/11 08:04:29;;;;;;;22.22;8.90;;;;;;;11.79;54.44;101856.28;1799078;80;21528;-59
2021/12/11 08:06:57;;;;;;;17.25;8.43;;;;;;;11.03;55.23;101853.32;1830495;78;21082;-59
2021/12/11 08:09:26;;;;;;;20.10;8.55;;;;;;;10.28;56.68;101867.61;1799015;80;21056;-59
2021/12/11 08:11:56;;;;;;;14.83;5.62;;;;;;;9.82;57.82;101861.89;1830485;78;21543;-58
2021/12/11 08:14:26;;;;;;;18.90;8.05;;;;;;;9.45;58.67;101846.75;1799077;80;21571;-59
2021/12/11 08:16:57;;;;;;;35.00;13.10;;;;;;;9.41;59.22;101849.88;1830614;78;21054;-59
2021/12/11 08:19:28;;;;;;;33.35;12.43;;;;;;;9.81;58.97;101853.57;1830591;78;21103;-58
2021/12/11 08:22:00;;;;;;;22.45;8.85;;;;;;;10.35;58.29;101844.70;1830394;78;21034;-59
2021/12/11 08:24:29;;;;;;;31.73;13.78;;;;;;;10.80;57.31;101823.06;1799185;80;21058;-59
2021/12/11 08:27:01;;;;;;;41.45;13.38;;;;;;;11.07;56.40;101829.08;1830573;78;21128;-58
2021/12/11 08:29:31;;;;;;;26.77;11.43;;;;;;;11.13;56.30;101816.59;1830534;77;21493;-58
2021/12/11 08:32:00;;;;;;;22.98;8.08;;;;;;;11.72;55.61;101808.53;1830486;78;21433;-59
2021/12/11 08:34:30;;;;;;;30.65;10.45;;;;;;;12.52;54.03;101803.64;1799050;80;21115;-59
2021/12/11 08:37:00;;;;;;;28.87;12.07;;;;;;;12.80;53.35;101802.80;1830515;78;21038;-59
2021/12/11 08:39:30;;;;;;;31.42;11.70;;;;;;;13.19;52.98;101809.92;1830510;78;21062;-59
2021/12/11 08:42:02;;;;;;;23.83;10.10;;;;;;;14.16;51.90;101812.33;1830503;77;21030;-58
2021/12/11 08:44:35;;;;;;;32.25;12.15;;;;;;;14.85;50.46;101796.46;1830472;78;21031;-59
2021/12/11 08:47:05;;;;;;;32.10;13.15;;;;;;;15.72;49.21;101792.39;1830184;78;21066;-58
2021/12/11 08:49:36;;;;;;;32.67;13.72;;;;;;;16.47;48.10;101798.31;1823979;77;21098;-58
2021/12/11 08:52:17;;;;;;;28.40;11.40;;;;;;;17.27;47.00;101787.80;1812668;79;21148;-59
2021/12/11 08:54:47;;;;;;;28.87;12.53;;;;;;;17.65;45.83;101786.31;1812784;79;21129;-60
2021/12/11 08:57:18;;;;;;;33.83;11.70;;;;;;;17.83;45.31;101780.94;1812620;78;21525;-61
2021/12/11 08:59:53;;;;;;;36.58;14.15;;;;;;;17.80;44.88;101783.75;1812590;79;21054;-58
2021/12/11 09:02:24;;;;;;;34.23;13.38;;;;;;;17.92;44.11;101797.32;1812588;78;21043;-59
2021/12/11 09:05:04;;;;;;;27.62;12.58;;;;;;;18.06;43.55;101781.94;1812670;78;21079;-59
2021/12/11 09:07:41;;;;;;;28.00;12.33;;;;;;;18.37;42.83;101781.61;1812654;79;21023;-60
2021/12/11 09:10:19;;;;;;;20.43;8.75;;;;;;;18.77;42.58;101785.16;1812749;79;21078;-59
2021/12/11 09:12:51;;;;;;;28.87;11.88;;;;;;;18.89;42.01;101777.34;1812793;79;21075;-59
2021/12/11 09:15:22;;;;;;;22.45;11.18;;;;;;;18.95;41.73;101772.13;1812213;78;21062;-59
2021/12/11 09:17:55;;;;;;;24.82;9.40;;;;;;;19.21;41.25;101779.94;1812636;79;21509;-59
2021/12/11 09:20:44;;;;;;;29.30;9.78;;;;;;;19.38;41.08;101773.59;1781917;80;21117;-59
2021/12/11 09:23:36;;;;;;;19.70;10.08;;;;;;;19.03;40.03;101758.33;1811632;78;21059;-59
2021/12/11 09:26:12;;;;;;;18.92;8.88;;;;;;;18.98;40.07;101753.73;1812703;78;21102;-58
2021/12/11 09:28:44;;;;;;;21.00;9.25;;;;;;;19.03;39.85;101747.20;1812501;79;21108;-59
2021/12/11 09:31:21;;;;;;;21.65;8.60;;;;;;;18.56;40.48;101748.09;1781906;80;21051;-58
2021/12/11 09:33:53;;;;;;;19.62;8.23;;;;;;;18.16;40.50;101752.98;1811926;78;21046;-58
2021/12/11 09:36:31;;;;;;;20.37;8.95;;;;;;;18.30;40.25;101748.23;1782006;80;21103;-58
2021/12/11 09:39:18;;;;;;;22.07;9.20;;;;;;;18.65;40.17;101746.72;1812569;79;21141;-60
2021/12/11 09:41:47;;;;;;;21.45;9.00;;;;;;;19.09;39.60;101740.64;1781771;80;21039;-60
2021/12/11 09:44:55;;;;;;;21.62;10.00;;;;;;;19.59;39.05;101751.42;1742457;82;21187;-59
2021/12/11 09:47:29;;;;;;;19.45;9.25;;;;;;;19.47;39.20;101742.81;1801596;80;21061;-59
2021/12/11 09:50:04;;;;;;;19.60;9.63;;;;;;;18.76;39.59;101755.41;1801938;78;21065;-59
2021/12/11 09:52:33;;;;;;;13.22;5.87;;;;;;;18.27;40.38;101751.91;1801875;79;21085;-60
2021/12/11 09:55:04;;;;;;;16.05;7.60;;;;;;;17.97;40.88;101750.46;1771858;81;21118;-60
2021/12/11 09:57:36;;;;;;;18.92;8.88;;;;;;;17.88;40.68;101744.30;1801716;78;21085;-60
2021/12/11 10:00:16;;;;;;;21.77;7.62;;;;;;;17.54;40.88;101742.08;1801926;80;21136;-60
2021/12/11 10:02:46;;;;;;;17.07;8.33;;;;;;;17.30;41.28;101746.84;1801037;79;21168;-59
2021/12/11 10:05:32;;;;;;;20.27;8.85;;;;;;;17.64;41.03;101749.95;1771845;81;21523;-59
2021/12/11 10:08:32;;;;;;;24.30;9.93;;;;;;;18.00;40.73;101752.09;1801726;78;21057;-60
2021/12/11 10:11:15;;;;;;;20.77;9.63;;;;;;;18.59;40.08;101741.71;1801839;79;21147;-60
2021/12/11 10:13:56;;;;;;;18.62;7.60;;;;;;;18.89;39.54;101737.32;1801952;80;21516;-57
2021/12/11 10:16:27;;;;;;;21.97;8.75;;;;;;;18.75;39.76;101743.89;1801700;79;21159;-58
2021/12/11 10:18:56;;;;;;;27.30;9.03;;;;;;;18.40;40.28;101731.23;1801811;80;21049;-57
2021/12/11 10:21:34;;;;;;;19.52;8.40;;;;;;;18.49;40.33;101727.56;1771844;81;21511;-57
2021/12/11 10:24:05;;;;;;;18.75;7.85;;;;;;;18.83;39.80;101715.01;1801758;80;21061;-58
2021/12/11 10:26:35;;;;;;;18.57;8.68;;;;;;;19.04;39.18;101716.88;1801737;80;21516;-57
2021/12/11 10:29:09;;;;;;;19.75;9.33;;;;;;;19.31;38.74;101724.20;1771808;81;21060;-58
2021/12/11 10:31:40;;;;;;;17.52;8.25;;;;;;;19.40;38.77;101734.78;1801844;80;21127;-58
2021/12/11 10:34:12;;;;;;;18.17;8.88;;;;;;;19.17;39.72;101731.69;1801384;79;21155;-58
2021/12/11 10:36:44;;;;;;;20.50;8.33;;;;;;;19.05;40.00;101728.41;1801691;80;21085;-58
2021/12/11 10:39:15;;;;;;;14.87;6.87;;;;;;;19.24;39.38;101725.03;1800674;79;21519;-57
2021/12/11 10:41:46;;;;;;;19.67;8.85;;;;;;;19.50;38.73;101722.60;1771815;81;21205;-58
2021/12/11 10:44:17;;;;;;;19.35;8.33;;;;;;;19.59;38.13;101721.19;1794727;78;21159;-58
2021/12/11 10:46:49;;;;;;;17.55;7.30;;;;;;;19.78;38.03;101722.27;1786670;80;21496;-57
2021/12/11 10:49:19;;;;;;;16.37;7.62;;;;;;;19.72;37.98;101718.61;1786200;80;21589;-58
2021/12/11 10:51:51;;;;;;;21.95;9.30;;;;;;;19.66;37.96;101712.69;1786642;79;21077;-59
2021/12/11 10:54:21;;;;;;;16.57;7.05;;;;;;;19.41;37.82;101716.48;1786807;80;21073;-59
2021/12/11 10:56:51;;;;;;;14.85;6.28;;;;;;;19.15;38.11;101716.24;1786648;80;21163;-58
2021/12/11 10:59:26;;;;;;;17.65;7.83;;;;;;;19.07;38.37;101714.48;1786649;80;21069;-58
2021/12/11 11:02:00;;;;;;;14.60;7.40;;;;;;;19.12;38.30;101727.09;1786745;80;21077;-57
2021/12/11 11:04:32;;;;;;;15.72;6.70;;;;;;;19.14;38.11;101725.67;1786566;80;21030;-58
2021/12/11 11:07:01;;;;;;;18.17;7.78;;;;;;;19.07;38.37;101717.16;1785704;80;21140;-57
2021/12/11 11:09:32;;;;;;;14.28;6.55;;;;;;;18.79;38.48;101720.08;1786665;80;21551;-58
2021/12/11 11:12:03;;;;;;;17.55;6.67;;;;;;;18.33;39.27;101720.05;1786621;80;21255;-59
2021/12/11 11:14:32;;;;;;;15.65;6.92;;;;;;;17.97;39.93;101726.48;1786680;80;21163;-60
2021/12/11 11:17:04;;;;;;;22.30;8.98;;;;;;;18.10;39.68;101722.19;1786546;80;21085;-61
2021/12/11 11:19:38;;;;;;;14.10;6.95;;;;;;;18.11;39.60;101729.25;1785382;80;21539;-60
2021/12/11 11:22:08;;;;;;;17.65;8.55;;;;;;;18.14;39.64;101730.40;1786559;80;21586;-61
2021/12/11 11:24:39;;;;;;;25.85;10.78;;;;;;;18.31;39.54;101727.27;1786721;80;21469;-65
2021/12/11 11:27:08;;;;;;;19.87;8.75;;;;;;;18.67;39.21;101731.48;1786961;80;21511;-66
2021/12/11 11:29:39;;;;;;;13.32;6.50;;;;;;;18.76;39.21;101725.62;1786643;80;21508;-67
2021/12/11 11:32:11;;;;;;;15.55;6.87;;;;;;;18.69;39.41;101732.25;1786851;80;21029;-59
2021/12/11 11:34:41;;;;;;;15.05;5.67;;;;;;;18.76;39.48;101737.63;1786755;80;21581;-59
2021/12/11 11:37:13;;;;;;;17.90;8.03;;;;;;;18.36;39.81;101749.21;1786746;80;21119;-58
2021/12/11 11:39:42;;;;;;;38.50;15.03;;;;;;;18.02;40.26;101752.41;1787187;80;21505;-61
2021/12/11 11:42:17;;;;;;;22.13;8.28;;;;;;;18.03;40.46;101755.45;1757900;81;21148;-61
2021/12/11 11:44:47;;;;;;;17.52;7.85;;;;;;;18.16;40.50;101762.78;1759531;80;21101;-62
2021/12/11 11:47:18;;;;;;;24.82;8.33;;;;;;;18.33;40.40;101772.03;1779942;80;21497;-60
2021/12/11 11:52:18;;;;;;;19.67;9.15;;;;;;;18.29;40.65;101774.48;1858281;76;21567;-62
2021/12/11 11:54:50;;;;;;;25.82;8.03;;;;;;;18.19;40.90;101781.28;1803196;78;21035;-61
2021/12/11 11:57:30;;;;;;;22.05;7.78;;;;;;;18.08;41.14;101788.05;1854639;76;21124;-61
2021/12/11 12:00:01;;;;;;;26.23;9.18;;;;;;;17.99;41.31;101799.20;1844389;77;21125;-63
2021/12/11 12:02:33;;;;;;;30.10;10.43;;;;;;;17.79;41.69;101803.36;1843163;77;21169;-61